Portada
METAR-TAF:

METAR-TAF

Aeroports :

Shijiazhuang, Xina

latitud: 38-16-51N, longitud: 114-41-48E, altitud: 233 m

Observació

L'informe es va fer fa 1 hora i 10 minuts, a les 00:00 UTC
Vent 4 kt del Nord-Oest
Temperatura 0°C
Humitat 59%
Pressió 1021 hPa
Visibilitat: 8000 m

METAR: ZBSJ 140000Z 32002MPS 8000 NSC 00/M07 Q1021 NOSIG

Hora: 09:10 (01:10 UTC)

Pronòstic

L'informe es va fer fa 6 hores i 7 minuts, a les 19:03 UTC
Pronòstic vàlid del 14 a les 00 UTC al 14 a les 24 UTC
Vent 8 kt del Est/Nord-Est
Visibilitat: 6000 m

TAF: ZBSJ 131903Z 1400/1424 06004MPS 6000 NSC TX12/1406Z TNM02/21Z

Observacions i pronòstics meteorològics de més de 4000 aeroports (METAR i TAF).

Les estacions disponibles són els punts grocs i vermells al mapa.

Posi el ratolí al punt desitjat per veure el nom de l'estació.

Feu clic per veure les observacions i els pronòstics meteorològics.

Per canviar el mapa: feu clic els botons verds amb una creu de color negre per apropar; al botó verd amb un guió per allunyar la imatge; o en les fletxes verdes per a mapes adjacents.


METAR-TAF: